Time;durP1;ratioP1;P1;durP2;ratioP2;P2;SDS_P1;SDS_P2;PMS_P1;PMS_P2;Temp;Humidity;BMP_temperature;BMP_pressure;BME280_temperature;BME280_humidity;BME280_pressure;Samples;Min_cycle;Max_cycle;Signal;HPM_P1;HPM_P2
2022/02/22 00:00:40;;;;;;;;;5.25;5.25;;;;;;;;5001196;28;12301;-77
2022/02/22 00:03:07;;;;;;;;;6.00;4.00;;;;;;;;5018927;28;11590;-77
2022/02/22 00:05:35;;;;;;;;;7.50;3.25;;;;;;;;4998830;28;11462;-77
2022/02/22 00:08:04;;;;;;;;;5.50;4.00;;;;;;;;5016606;28;11481;-77
2022/02/22 00:10:31;;;;;;;;;6.25;5.25;;;;;;;;5020474;28;11506;-77
2022/02/22 00:12:58;;;;;;;;;3.50;2.00;;;;;;;;5012256;28;11456;-76
2022/02/22 00:15:26;;;;;;;;;6.00;5.50;;;;;;;;5019918;28;12364;-76
2022/02/22 00:17:53;;;;;;;;;3.00;3.00;;;;;;;;5018717;28;11533;-76
2022/02/22 00:20:20;;;;;;;;;8.00;4.75;;;;;;;;5025210;28;11582;-76
2022/02/22 00:22:48;;;;;;;;;9.50;5.25;;;;;;;;5005086;28;11590;-76
2022/02/22 00:25:16;;;;;;;;;5.00;3.00;;;;;;;;5008021;28;11492;-76
2022/02/22 00:27:44;;;;;;;;;5.50;3.50;;;;;;;;5020396;28;11459;-77
2022/02/22 00:30:14;;;;;;;;;5.00;3.00;;;;;;;;5003978;28;11480;-78
2022/02/22 00:32:42;;;;;;;;;4.50;3.25;;;;;;;;5009140;28;11475;-79
2022/02/22 00:35:11;;;;;;;;;6.00;3.00;;;;;;;;5015604;28;11445;-77
2022/02/22 00:37:39;;;;;;;;;8.25;3.50;;;;;;;;5014219;28;11651;-77
2022/02/22 00:40:08;;;;;;;;;10.50;6.75;;;;;;;;5035273;28;11622;-78
2022/02/22 00:42:37;;;;;;;;;7.25;5.75;;;;;;;;5009823;28;11511;-78
2022/02/22 00:45:05;;;;;;;;;13.00;5.75;;;;;;;;5008149;28;12283;-78
2022/02/22 00:47:33;;;;;;;;;4.25;3.00;;;;;;;;5013629;28;11559;-77
2022/02/22 00:50:00;;;;;;;;;8.25;6.50;;;;;;;;5017047;28;11493;-76
2022/02/22 00:52:28;;;;;;;;;8.50;2.00;;;;;;;;5010695;28;11443;-77
2022/02/22 00:54:56;;;;;;;;;2.00;2.00;;;;;;;;5001966;28;11429;-78
2022/02/22 00:57:23;;;;;;;;;8.75;5.75;;;;;;;;4994279;28;11437;-78
2022/02/22 00:59:52;;;;;;;;;5.25;3.25;;;;;;;;4999279;28;11421;-77
2022/02/22 01:02:20;;;;;;;;;10.25;5.00;;;;;;;;4993877;28;11397;-77
2022/02/22 01:04:47;;;;;;;;;5.25;1.75;;;;;;;;4994582;28;11436;-77
2022/02/22 01:07:16;;;;;;;;;6.50;3.00;;;;;;;;5002059;28;11545;-77
2022/02/22 01:09:44;;;;;;;;;3.25;3.25;;;;;;;;4976617;28;11470;-76
2022/02/22 01:12:11;;;;;;;;;5.00;2.50;;;;;;;;5001954;28;11420;-77
2022/02/22 01:14:39;;;;;;;;;5.50;4.00;;;;;;;;4993780;28;11414;-77
2022/02/22 01:17:08;;;;;;;;;3.25;2.00;;;;;;;;4993056;28;11442;-77
2022/02/22 01:19:36;;;;;;;;;8.00;4.00;;;;;;;;4993753;28;11415;-77
2022/02/22 01:22:04;;;;;;;;;4.75;3.00;;;;;;;;4987559;28;11578;-77
2022/02/22 01:24:32;;;;;;;;;6.00;4.25;;;;;;;;4992196;28;11403;-77
2022/02/22 01:26:59;;;;;;;;;3.50;1.00;;;;;;;;4997477;28;11436;-78
2022/02/22 01:29:27;;;;;;;;;1.25;1.25;;;;;;;;5002137;28;12219;-76
2022/02/22 01:31:55;;;;;;;;;7.00;2.50;;;;;;;;4974937;28;11529;-77
2022/02/22 01:34:23;;;;;;;;;0.25;0.25;;;;;;;;5002863;28;11400;-77
2022/02/22 01:36:50;;;;;;;;;5.00;1.00;;;;;;;;5002896;28;11439;-77
2022/02/22 01:39:18;;;;;;;;;5.00;2.00;;;;;;;;4998379;28;11452;-77
2022/02/22 01:41:45;;;;;;;;;8.00;4.00;;;;;;;;5005091;28;11447;-76
2022/02/22 01:44:13;;;;;;;;;2.50;2.00;;;;;;;;5010540;28;11423;-77
2022/02/22 01:46:40;;;;;;;;;3.50;3.50;;;;;;;;4984107;28;12243;-78
2022/02/22 01:49:08;;;;;;;;;1.50;1.00;;;;;;;;5003589;28;11450;-77
2022/02/22 01:51:40;;;;;;;;;4.75;2.00;;;;;;;;5012863;28;11533;-77
2022/02/22 01:54:08;;;;;;;;;7.25;4.00;;;;;;;;5032163;28;11473;-77
2022/02/22 01:56:36;;;;;;;;;6.50;3.00;;;;;;;;5019939;28;11467;-77
2022/02/22 01:59:03;;;;;;;;;4.25;1.50;;;;;;;;5022083;28;11510;-77
2022/02/22 02:01:31;;;;;;;;;1.75;1.75;;;;;;;;5022693;28;11440;-78
2022/02/22 02:03:58;;;;;;;;;4.00;4.00;;;;;;;;5022201;28;11475;-77
2022/02/22 02:06:25;;;;;;;;;8.00;5.00;;;;;;;;5020185;28;11686;-77
2022/02/22 02:08:54;;;;;;;;;4.75;4.75;;;;;;;;5020672;28;11492;-77
2022/02/22 02:11:21;;;;;;;;;10.00;2.00;;;;;;;;5022461;28;11490;-77
2022/02/22 02:13:50;;;;;;;;;5.00;4.50;;;;;;;;5023657;28;11486;-77
2022/02/22 02:16:17;;;;;;;;;4.75;4.25;;;;;;;;5023417;28;11498;-78
2022/02/22 02:18:45;;;;;;;;;4.50;4.00;;;;;;;;5012959;28;11582;-77
2022/02/22 02:21:13;;;;;;;;;7.00;5.00;;;;;;;;5034146;28;11455;-78
2022/02/22 02:23:42;;;;;;;;;5.75;4.00;;;;;;;;5016476;28;11695;-77
2022/02/22 02:26:09;;;;;;;;;6.00;2.00;;;;;;;;5022659;28;11576;-77
2022/02/22 02:28:36;;;;;;;;;8.00;3.50;;;;;;;;5020154;28;11516;-78
2022/02/22 02:31:03;;;;;;;;;6.00;6.00;;;;;;;;5020801;28;12223;-77
2022/02/22 02:33:31;;;;;;;;;9.00;3.50;;;;;;;;5007325;28;11449;-78
2022/02/22 02:35:58;;;;;;;;;4.75;4.75;;;;;;;;5015428;28;12364;-77
2022/02/22 02:38:26;;;;;;;;;4.50;2.00;;;;;;;;5018896;28;11647;-78
2022/02/22 02:40:54;;;;;;;;;5.25;2.50;;;;;;;;5023753;28;11650;-77
2022/02/22 02:43:22;;;;;;;;;12.00;5.50;;;;;;;;5017097;28;11535;-77
2022/02/22 02:45:49;;;;;;;;;6.00;2.00;;;;;;;;5020802;28;11535;-77
2022/02/22 02:48:16;;;;;;;;;7.00;3.00;;;;;;;;5021110;28;11525;-77
2022/02/22 02:50:44;;;;;;;;;5.00;2.00;;;;;;;;5020368;28;11524;-77
2022/02/22 02:53:11;;;;;;;;;5.75;3.50;;;;;;;;5021267;28;11453;-77
2022/02/22 02:55:38;;;;;;;;;4.75;3.00;;;;;;;;5002915;28;11564;-77
2022/02/22 02:58:07;;;;;;;;;4.00;4.00;;;;;;;;5022527;28;11467;-77
2022/02/22 03:00:34;;;;;;;;;4.00;2.00;;;;;;;;5020122;28;11648;-76
2022/02/22 03:03:01;;;;;;;;;3.25;1.75;;;;;;;;5014121;28;11518;-78
2022/02/22 03:05:29;;;;;;;;;5.00;5.00;;;;;;;;5020038;28;11489;-78
2022/02/22 03:07:59;;;;;;;;;2.50;1.50;;;;;;;;5018495;28;11547;-77
2022/02/22 03:10:27;;;;;;;;;3.25;0.00;;;;;;;;5020064;28;11432;-77
2022/02/22 03:12:54;;;;;;;;;13.00;5.00;;;;;;;;5020446;28;11446;-78
2022/02/22 03:15:23;;;;;;;;;1.75;1.75;;;;;;;;5010737;28;11491;-77
2022/02/22 03:17:51;;;;;;;;;8.00;5.50;;;;;;;;5017681;28;11521;-77
2022/02/22 03:20:19;;;;;;;;;2.00;2.00;;;;;;;;5019577;28;11616;-78
2022/02/22 03:22:47;;;;;;;;;1.00;1.00;;;;;;;;5015947;28;11612;-77
2022/02/22 03:25:15;;;;;;;;;6.00;2.00;;;;;;;;5020100;28;12365;-77
2022/02/22 03:27:42;;;;;;;;;3.50;3.50;;;;;;;;5016887;28;12485;-78
2022/02/22 03:30:10;;;;;;;;;5.75;2.00;;;;;;;;5008793;28;11506;-77
2022/02/22 03:32:39;;;;;;;;;5.75;4.00;;;;;;;;5009074;28;11592;-77
2022/02/22 03:35:07;;;;;;;;;5.50;4.00;;;;;;;;5013397;28;11581;-77
2022/02/22 03:37:35;;;;;;;;;4.75;1.25;;;;;;;;5017355;28;11624;-77
2022/02/22 03:40:02;;;;;;;;;5.25;3.00;;;;;;;;5021211;28;11522;-77
2022/02/22 03:42:30;;;;;;;;;8.75;5.50;;;;;;;;5012168;28;11527;-77
2022/02/22 03:44:57;;;;;;;;;5.50;3.00;;;;;;;;5001752;28;11713;-77
2022/02/22 03:47:24;;;;;;;;;5.50;5.50;;;;;;;;5015649;28;11528;-77
2022/02/22 03:49:53;;;;;;;;;8.00;4.00;;;;;;;;5009088;28;11549;-77
2022/02/22 03:52:20;;;;;;;;;7.50;4.75;;;;;;;;5014734;28;12322;-77
2022/02/22 03:54:47;;;;;;;;;4.25;3.00;;;;;;;;5016174;28;11514;-77
2022/02/22 03:57:15;;;;;;;;;5.75;4.50;;;;;;;;5021691;28;11554;-77
2022/02/22 03:59:42;;;;;;;;;7.50;5.50;;;;;;;;5014028;28;11505;-77
2022/02/22 04:02:09;;;;;;;;;8.25;4.25;;;;;;;;5009043;28;11461;-77
2022/02/22 04:04:36;;;;;;;;;6.00;4.00;;;;;;;;5015550;28;11502;-77
2022/02/22 04:07:05;;;;;;;;;8.25;8.00;;;;;;;;5013481;28;11497;-76
2022/02/22 04:09:33;;;;;;;;;7.50;5.00;;;;;;;;4995013;28;11659;-76
2022/02/22 04:12:00;;;;;;;;;8.50;5.75;;;;;;;;5013322;28;11543;-76
2022/02/22 04:14:27;;;;;;;;;9.25;5.25;;;;;;;;5016362;28;11552;-77
2022/02/22 04:16:58;;;;;;;;;7.50;5.00;;;;;;;;5021107;28;11614;-77
2022/02/22 04:19:25;;;;;;;;;9.25;6.50;;;;;;;;4994662;28;11552;-77
2022/02/22 04:21:52;;;;;;;;;10.50;5.00;;;;;;;;5016140;28;11542;-77
2022/02/22 04:24:21;;;;;;;;;13.50;5.00;;;;;;;;5012375;28;11576;-77
2022/02/22 04:26:49;;;;;;;;;12.00;9.00;;;;;;;;5020894;28;11541;-77
2022/02/22 04:29:16;;;;;;;;;11.50;9.00;;;;;;;;5018561;28;11569;-77
2022/02/22 04:31:43;;;;;;;;;10.00;5.50;;;;;;;;5021591;28;11452;-78
2022/02/22 04:34:11;;;;;;;;;5.00;4.50;;;;;;;;5019397;28;11477;-77
2022/02/22 04:36:38;;;;;;;;;6.00;5.75;;;;;;;;5016216;28;11585;-76
2022/02/22 04:39:10;;;;;;;;;11.25;8.75;;;;;;;;5021355;28;11439;-76
2022/02/22 04:41:39;;;;;;;;;16.25;8.25;;;;;;;;5019614;28;11510;-78
2022/02/22 04:44:07;;;;;;;;;7.25;5.00;;;;;;;;5014981;28;12927;-78
2022/02/22 04:46:35;;;;;;;;;9.00;4.75;;;;;;;;5010533;28;12377;-77
2022/02/22 04:49:08;;;;;;;;;6.00;4.50;;;;;;;;4994967;28;11614;-78
2022/02/22 04:51:36;;;;;;;;;9.00;6.00;;;;;;;;5017597;28;11483;-78
2022/02/22 04:54:03;;;;;;;;;9.25;7.00;;;;;;;;5011390;28;11566;-77
2022/02/22 04:56:30;;;;;;;;;5.25;2.00;;;;;;;;5013418;28;11444;-78
2022/02/22 04:58:59;;;;;;;;;8.50;7.50;;;;;;;;5002293;28;11473;-77
2022/02/22 05:01:26;;;;;;;;;10.50;5.00;;;;;;;;5019829;28;11423;-77
2022/02/22 05:03:55;;;;;;;;;5.50;5.50;;;;;;;;5021528;28;11493;-77
2022/02/22 05:06:22;;;;;;;;;11.50;8.00;;;;;;;;5008326;28;11601;-78
2022/02/22 05:08:49;;;;;;;;;7.50;5.50;;;;;;;;5010176;28;11549;-78
2022/02/22 05:11:17;;;;;;;;;9.25;8.00;;;;;;;;5018488;28;11495;-77
2022/02/22 05:13:44;;;;;;;;;11.50;8.50;;;;;;;;5005268;28;11446;-77
2022/02/22 05:16:14;;;;;;;;;11.25;8.50;;;;;;;;5024910;28;11454;-77
2022/02/22 05:18:41;;;;;;;;;7.50;5.00;;;;;;;;5019256;28;12206;-77
2022/02/22 05:21:08;;;;;;;;;12.25;5.75;;;;;;;;5013504;28;11484;-77
2022/02/22 05:23:36;;;;;;;;;10.00;8.75;;;;;;;;5016670;28;12288;-77
2022/02/22 05:26:05;;;;;;;;;16.50;6.25;;;;;;;;5024075;28;11471;-76
2022/02/22 05:28:32;;;;;;;;;7.75;7.75;;;;;;;;5019905;28;11577;-76
2022/02/22 05:31:00;;;;;;;;;7.25;7.25;;;;;;;;5014340;28;11457;-77
2022/02/22 05:33:29;;;;;;;;;10.25;8.75;;;;;;;;5013303;28;11484;-76
2022/02/22 05:35:57;;;;;;;;;6.25;5.75;;;;;;;;5015285;28;11480;-76
2022/02/22 05:38:24;;;;;;;;;19.25;10.50;;;;;;;;5020466;28;11903;-76
2022/02/22 05:40:51;;;;;;;;;5.25;5.25;;;;;;;;5014165;28;11492;-77
2022/02/22 05:43:19;;;;;;;;;13.25;8.75;;;;;;;;5005756;28;11612;-78
2022/02/22 05:45:46;;;;;;;;;11.75;7.25;;;;;;;;5007852;28;11499;-78
2022/02/22 05:48:13;;;;;;;;;12.25;7.00;;;;;;;;5014366;28;11493;-75
2022/02/22 05:50:43;;;;;;;;;9.25;6.25;;;;;;;;5020875;28;11554;-77
2022/02/22 05:53:11;;;;;;;;;13.00;7.50;;;;;;;;5011522;28;12355;-78
2022/02/22 05:55:38;;;;;;;;;16.25;11.00;;;;;;;;5025673;28;11488;-77
2022/02/22 05:58:06;;;;;;;;;9.50;9.25;;;;;;;;5024828;28;11473;-77
2022/02/22 06:00:33;;;;;;;;;18.50;10.25;;;;;;;;5025497;28;11565;-77
2022/02/22 06:03:01;;;;;;;;;11.50;6.75;;;;;;;;5026740;28;11601;-78
2022/02/22 06:05:28;;;;;;;;;13.00;6.00;;;;;;;;5023526;28;11551;-78
2022/02/22 06:07:58;;;;;;;;;11.50;8.75;;;;;;;;5023051;28;11489;-78
2022/02/22 06:10:28;;;;;;;;;11.00;6.25;;;;;;;;5025218;28;11561;-78
2022/02/22 06:12:55;;;;;;;;;10.75;8.75;;;;;;;;5024208;28;11503;-78
2022/02/22 06:15:24;;;;;;;;;14.50;8.25;;;;;;;;5025212;28;11708;-79
2022/02/22 06:17:51;;;;;;;;;12.50;10.25;;;;;;;;5022251;28;11763;-78
2022/02/22 06:20:19;;;;;;;;;13.75;10.00;;;;;;;;5025018;28;11448;-79
2022/02/22 06:22:46;;;;;;;;;13.50;7.00;;;;;;;;5025289;28;11525;-79
2022/02/22 06:25:15;;;;;;;;;14.00;12.50;;;;;;;;5022214;28;11471;-80
2022/02/22 06:27:48;;;;;;;;;21.25;9.00;;;;;;;;5018466;28;11507;-84
2022/02/22 06:30:16;;;;;;;;;15.50;10.75;;;;;;;;5011873;28;11479;-90
2022/02/22 06:32:44;;;;;;;;;9.75;7.50;;;;;;;;5015832;28;11496;-87
2022/02/22 06:35:12;;;;;;;;;12.25;7.25;;;;;;;;5013843;28;11562;-84
2022/02/22 06:37:39;;;;;;;;;11.00;9.50;;;;;;;;5026635;28;11620;-84
2022/02/22 06:40:08;;;;;;;;;15.50;6.25;;;;;;;;5016295;28;11530;-86
2022/02/22 06:42:37;;;;;;;;;11.25;7.25;;;;;;;;5022597;28;11475;-86
2022/02/22 06:45:07;;;;;;;;;18.75;9.75;;;;;;;;5024837;28;11481;-86
2022/02/22 06:47:37;;;;;;;;;5.75;5.25;;;;;;;;5022669;28;11516;-84
2022/02/22 06:50:06;;;;;;;;;10.50;8.25;;;;;;;;5007717;28;11463;-85
2022/02/22 06:52:33;;;;;;;;;15.25;8.50;;;;;;;;5009337;28;11502;-84
2022/02/22 06:55:01;;;;;;;;;8.00;7.00;;;;;;;;5021611;28;11564;-85
2022/02/22 06:57:28;;;;;;;;;8.25;8.25;;;;;;;;5024599;28;11477;-85
2022/02/22 06:59:57;;;;;;;;;10.00;8.75;;;;;;;;5023087;28;11481;-84
2022/02/22 07:02:24;;;;;;;;;15.25;7.50;;;;;;;;5006659;28;11423;-83
2022/02/22 07:04:52;;;;;;;;;12.50;9.00;;;;;;;;5006119;28;12328;-85
2022/02/22 07:07:19;;;;;;;;;9.00;5.75;;;;;;;;5017299;28;11524;-85
2022/02/22 07:09:46;;;;;;;;;8.25;6.00;;;;;;;;5014250;28;11721;-85
2022/02/22 07:12:13;;;;;;;;;11.75;7.50;;;;;;;;5007412;28;12278;-84
2022/02/22 07:14:41;;;;;;;;;9.00;9.00;;;;;;;;5023971;28;12306;-85
2022/02/22 07:17:10;;;;;;;;;5.25;5.25;;;;;;;;5023604;28;11490;-85
2022/02/22 07:19:37;;;;;;;;;7.50;7.25;;;;;;;;5024940;28;11673;-85
2022/02/22 07:22:05;;;;;;;;;6.50;6.50;;;;;;;;5007737;28;11511;-85
2022/02/22 07:24:32;;;;;;;;;6.75;6.75;;;;;;;;5028632;28;11576;-81
2022/02/22 07:27:00;;;;;;;;;5.75;2.00;;;;;;;;5024826;28;11487;-78
2022/02/22 07:29:28;;;;;;;;;13.50;7.75;;;;;;;;5030444;28;12304;-78
2022/02/22 07:31:55;;;;;;;;;9.50;5.00;;;;;;;;5013046;28;11542;-79
2022/02/22 07:34:24;;;;;;;;;11.75;6.25;;;;;;;;5022148;28;11535;-80
2022/02/22 07:36:51;;;;;;;;;7.75;7.25;;;;;;;;5020772;28;11575;-81
2022/02/22 07:39:19;;;;;;;;;11.25;7.25;;;;;;;;5023175;28;11466;-79
2022/02/22 07:41:46;;;;;;;;;9.50;5.00;;;;;;;;5037447;28;11520;-79
2022/02/22 07:44:13;;;;;;;;;12.00;8.00;;;;;;;;5004805;28;11496;-79
2022/02/22 07:46:41;;;;;;;;;6.75;5.75;;;;;;;;5023777;28;11513;-80
2022/02/22 07:49:08;;;;;;;;;10.25;6.00;;;;;;;;5021219;28;11293;-79
2022/02/22 07:51:37;;;;;;;;;8.75;7.00;;;;;;;;5009935;28;11665;-78
2022/02/22 07:54:04;;;;;;;;;9.25;6.00;;;;;;;;5022279;28;12643;-78
2022/02/22 07:56:32;;;;;;;;;5.00;5.00;;;;;;;;5022870;28;11410;-86
2022/02/22 07:58:59;;;;;;;;;9.75;7.50;;;;;;;;5028848;28;11480;-84
2022/02/22 08:01:26;;;;;;;;;9.50;5.50;;;;;;;;5019764;28;11459;-85
2022/02/22 08:03:54;;;;;;;;;8.25;4.00;;;;;;;;5015526;28;11102;-78
2022/02/22 08:06:21;;;;;;;;;5.25;5.00;;;;;;;;5022012;28;11307;-78
2022/02/22 08:08:50;;;;;;;;;9.00;5.00;;;;;;;;5021085;28;11059;-78
2022/02/22 08:11:17;;;;;;;;;9.00;6.50;;;;;;;;5022334;28;11119;-78
2022/02/22 08:13:44;;;;;;;;;10.00;7.00;;;;;;;;5020982;28;11177;-80
2022/02/22 08:16:12;;;;;;;;;13.50;9.00;;;;;;;;5022535;28;11092;-81
2022/02/22 08:18:41;;;;;;;;;16.00;10.00;;;;;;;;5021031;28;11167;-81
2022/02/22 08:21:08;;;;;;;;;6.00;6.00;;;;;;;;5026413;28;11487;-81
2022/02/22 08:23:35;;;;;;;;;12.25;5.75;;;;;;;;5006822;28;11200;-81
2022/02/22 08:26:05;;;;;;;;;10.25;9.25;;;;;;;;5010095;28;11143;-81
2022/02/22 08:28:32;;;;;;;;;7.00;5.25;;;;;;;;5016646;28;11139;-81
2022/02/22 08:30:59;;;;;;;;;10.25;10.25;;;;;;;;5053976;28;11101;-81
2022/02/22 08:33:27;;;;;;;;;10.00;7.00;;;;;;;;5016579;28;11056;-81
2022/02/22 08:35:54;;;;;;;;;7.50;6.00;;;;;;;;5018098;28;11265;-80
2022/02/22 08:38:22;;;;;;;;;9.00;6.00;;;;;;;;5018123;28;11186;-81
2022/02/22 08:40:50;;;;;;;;;14.25;8.00;;;;;;;;5019177;28;11106;-83
2022/02/22 08:43:19;;;;;;;;;14.75;9.25;;;;;;;;5027705;28;11120;-80
2022/02/22 08:45:46;;;;;;;;;15.25;10.00;;;;;;;;5053430;28;11027;-79
2022/02/22 08:48:14;;;;;;;;;6.50;6.00;;;;;;;;5013802;28;11104;-78
2022/02/22 08:50:41;;;;;;;;;16.25;10.00;;;;;;;;5027058;28;11091;-78
2022/02/22 08:53:09;;;;;;;;;11.50;9.50;;;;;;;;5019573;28;11043;-79
2022/02/22 08:55:37;;;;;;;;;11.00;9.00;;;;;;;;5021932;28;11113;-79
2022/02/22 08:58:06;;;;;;;;;10.50;5.00;;;;;;;;5020563;28;11007;-79
2022/02/22 09:00:36;;;;;;;;;9.75;7.00;;;;;;;;5000757;28;10964;-79
2022/02/22 09:03:04;;;;;;;;;8.50;7.00;;;;;;;;4998260;28;11247;-79
2022/02/22 09:05:32;;;;;;;;;14.00;11.75;;;;;;;;5022336;28;10940;-79
2022/02/22 09:08:00;;;;;;;;;12.75;7.00;;;;;;;;5010084;28;11042;-79
2022/02/22 09:10:28;;;;;;;;;5.75;5.75;;;;;;;;5021942;28;10964;-77
2022/02/22 09:12:55;;;;;;;;;8.75;8.75;;;;;;;;5011783;28;10855;-76
2022/02/22 09:15:24;;;;;;;;;13.75;6.25;;;;;;;;5032195;28;11043;-77
2022/02/22 09:17:53;;;;;;;;;7.00;7.00;;;;;;;;5020779;28;11034;-75
2022/02/22 09:20:23;;;;;;;;;9.00;7.50;;;;;;;;5019925;28;10874;-75
2022/02/22 09:22:51;;;;;;;;;9.00;6.00;;;;;;;;5017754;28;11080;-77
2022/02/22 09:25:19;;;;;;;;;10.50;7.00;;;;;;;;5010224;28;10855;-76
2022/02/22 09:27:47;;;;;;;;;7.50;6.25;;;;;;;;5022074;28;10958;-76
2022/02/22 09:30:16;;;;;;;;;8.25;5.75;;;;;;;;5014900;28;10875;-77
2022/02/22 09:32:44;;;;;;;;;6.00;3.00;;;;;;;;5015068;28;10793;-77
2022/02/22 09:35:16;;;;;;;;;7.00;5.25;;;;;;;;5021534;28;10777;-77
2022/02/22 09:37:43;;;;;;;;;9.00;6.25;;;;;;;;5021867;28;10860;-75
2022/02/22 09:40:12;;;;;;;;;7.25;5.50;;;;;;;;5014818;28;10950;-84
2022/02/22 09:42:39;;;;;;;;;11.75;6.75;;;;;;;;5022597;28;10852;-77
2022/02/22 09:45:08;;;;;;;;;8.75;3.50;;;;;;;;5021673;28;10821;-80
2022/02/22 09:47:36;;;;;;;;;3.00;3.00;;;;;;;;5020852;28;11410;-77
2022/02/22 09:50:04;;;;;;;;;2.25;2.25;;;;;;;;5016759;28;10727;-76
2022/02/22 09:52:33;;;;;;;;;5.75;3.00;;;;;;;;5021665;28;10699;-77
2022/02/22 09:55:00;;;;;;;;;10.00;6.00;;;;;;;;5009392;28;10795;-76
2022/02/22 09:57:28;;;;;;;;;9.50;6.50;;;;;;;;4981999;28;10729;-76
2022/02/22 09:59:55;;;;;;;;;2.00;2.00;;;;;;;;5003322;28;10818;-76
2022/02/22 10:02:22;;;;;;;;;9.00;9.00;;;;;;;;4982723;28;10644;-76
2022/02/22 10:04:51;;;;;;;;;8.50;6.00;;;;;;;;4999934;28;10894;-79
2022/02/22 10:07:18;;;;;;;;;8.50;5.25;;;;;;;;5008601;28;10577;-77
2022/02/22 10:09:55;;;;;;;;;6.75;5.00;;;;;;;;5010373;28;10774;-80
2022/02/22 10:12:30;;;;;;;;;5.00;5.00;;;;;;;;4990961;28;10706;-82
2022/02/22 10:14:58;;;;;;;;;8.25;5.25;;;;;;;;5007885;28;10661;-82
2022/02/22 10:17:26;;;;;;;;;7.75;3.00;;;;;;;;5004658;28;10507;-78
2022/02/22 10:20:03;;;;;;;;;7.25;7.25;;;;;;;;5011420;28;10462;-79
2022/02/22 10:22:31;;;;;;;;;12.25;3.00;;;;;;;;4998013;28;10554;-80
2022/02/22 10:25:10;;;;;;;;;7.25;5.75;;;;;;;;5003407;28;10605;-77
2022/02/22 10:27:49;;;;;;;;;8.25;6.25;;;;;;;;5006248;28;10499;-83
2022/02/22 10:30:38;;;;;;;;;7.50;7.50;;;;;;;;5003552;28;10650;-79
2022/02/22 10:33:11;;;;;;;;;9.25;5.25;;;;;;;;5011024;28;11805;-79
2022/02/22 10:35:38;;;;;;;;;10.25;6.50;;;;;;;;5006759;28;10423;-83
2022/02/22 10:38:15;;;;;;;;;8.25;5.50;;;;;;;;5004994;28;10398;-77
2022/02/22 10:40:45;;;;;;;;;8.00;5.75;;;;;;;;5003949;28;10339;-77
2022/02/22 10:43:23;;;;;;;;;5.75;3.00;;;;;;;;4990303;28;10561;-78
2022/02/22 10:45:52;;;;;;;;;6.50;6.50;;;;;;;;4998040;28;10334;-77
2022/02/22 10:48:31;;;;;;;;;11.00;5.75;;;;;;;;5004208;28;10474;-77
2022/02/22 10:50:59;;;;;;;;;12.00;5.75;;;;;;;;5013545;28;10456;-79
2022/02/22 10:53:34;;;;;;;;;7.25;5.00;;;;;;;;5026598;28;10337;-80
2022/02/22 10:56:04;;;;;;;;;6.00;6.00;;;;;;;;5026820;28;10652;-80
2022/02/22 10:58:32;;;;;;;;;8.50;5.25;;;;;;;;5026318;28;10415;-81
2022/02/22 11:00:59;;;;;;;;;6.00;6.00;;;;;;;;5025016;28;10294;-79
2022/02/22 11:03:27;;;;;;;;;10.00;6.75;;;;;;;;5024319;28;10308;-82
2022/02/22 11:05:54;;;;;;;;;8.25;8.25;;;;;;;;5000233;28;10227;-79
2022/02/22 11:08:30;;;;;;;;;4.50;4.50;;;;;;;;5033942;28;10448;-79
2022/02/22 11:11:06;;;;;;;;;7.00;6.00;;;;;;;;5006766;28;10255;-79
2022/02/22 11:13:33;;;;;;;;;6.75;6.00;;;;;;;;5024063;28;11107;-77
2022/02/22 11:16:17;;;;;;;;;10.25;6.00;;;;;;;;5025300;28;10313;-77
2022/02/22 11:18:47;;;;;;;;;3.75;2.00;;;;;;;;5020819;28;10336;-78
2022/02/22 11:21:20;;;;;;;;;6.75;5.50;;;;;;;;5011909;28;10239;-79
2022/02/22 11:23:47;;;;;;;;;7.50;6.00;;;;;;;;5025145;28;10218;-81
2022/02/22 11:26:18;;;;;;;;;8.75;6.00;;;;;;;;5022202;28;10711;-78
2022/02/22 11:28:48;;;;;;;;;6.00;4.75;;;;;;;;5023857;28;10224;-78
2022/02/22 11:31:17;;;;;;;;;6.00;6.00;;;;;;;;5029796;28;10122;-81
2022/02/22 11:33:46;;;;;;;;;7.75;4.00;;;;;;;;5022456;28;10127;-82
2022/02/22 11:36:24;;;;;;;;;9.25;6.75;;;;;;;;5008341;28;10043;-80
2022/02/22 11:38:53;;;;;;;;;5.00;5.00;;;;;;;;5031785;28;10246;-79
2022/02/22 11:41:25;;;;;;;;;5.25;4.75;;;;;;;;5031176;28;10203;-79
2022/02/22 11:43:58;;;;;;;;;6.25;5.25;;;;;;;;5027171;28;10117;-80
2022/02/22 11:46:37;;;;;;;;;10.00;3.00;;;;;;;;5010708;28;10216;-81
2022/02/22 11:49:07;;;;;;;;;8.00;5.00;;;;;;;;4998522;28;9957;-78
2022/02/22 11:51:52;;;;;;;;;6.75;3.00;;;;;;;;5030748;28;10085;-82
2022/02/22 11:54:23;;;;;;;;;11.25;7.00;;;;;;;;5021399;28;9932;-78
2022/02/22 11:57:04;;;;;;;;;7.00;7.00;;;;;;;;5009999;28;9970;-79
2022/02/22 11:59:33;;;;;;;;;5.50;5.50;;;;;;;;5021222;28;10072;-80
2022/02/22 12:02:02;;;;;;;;;8.50;5.75;;;;;;;;4991650;28;9950;-78
2022/02/22 12:04:31;;;;;;;;;7.50;4.25;;;;;;;;5023587;28;9978;-80
2022/02/22 12:07:01;;;;;;;;;6.25;3.25;;;;;;;;4999229;28;9998;-80
2022/02/22 12:09:37;;;;;;;;;8.50;6.00;;;;;;;;5011676;28;9944;-80
2022/02/22 12:12:07;;;;;;;;;7.50;5.50;;;;;;;;5024356;28;9895;-80
2022/02/22 12:14:35;;;;;;;;;3.00;3.00;;;;;;;;5006896;28;10681;-79
2022/02/22 12:17:06;;;;;;;;;4.00;4.00;;;;;;;;5008120;28;9797;-78
2022/02/22 12:19:33;;;;;;;;;4.00;4.00;;;;;;;;5014201;28;10026;-77
2022/02/22 12:22:02;;;;;;;;;4.75;3.00;;;;;;;;5004626;28;9808;-79
2022/02/22 12:24:29;;;;;;;;;6.33;4.00;;;;;;;;5011826;28;9469;-79
2022/02/22 12:26:57;;;;;;;;;8.33;4.00;;;;;;;;5020316;28;9494;-84
2022/02/22 12:29:25;;;;;;;;;4.00;2.00;;;;;;;;5005862;28;9444;-81
2022/02/22 12:31:55;;;;;;;;;5.67;3.00;;;;;;;;5016278;28;9960;-84
2022/02/22 12:34:24;;;;;;;;;3.67;2.33;;;;;;;;5009346;28;9840;-83
2022/02/22 12:36:58;;;;;;;;;3.00;3.00;;;;;;;;5016552;28;9316;-81
2022/02/22 12:39:29;;;;;;;;;4.00;4.00;;;;;;;;5016424;28;9115;-82
2022/02/22 12:41:59;;;;;;;;;2.00;2.00;;;;;;;;5006676;28;9176;-81
2022/02/22 12:44:29;;;;;;;;;3.00;3.00;;;;;;;;5013476;28;9435;-79
2022/02/22 12:46:58;;;;;;;;;3.33;2.00;;;;;;;;5021588;28;9336;-81
2022/02/22 12:49:27;;;;;;;;;3.33;2.00;;;;;;;;5021003;28;9321;-81
2022/02/22 12:52:03;;;;;;;;;3.00;3.00;;;;;;;;5021629;28;9268;-82
2022/02/22 12:54:32;;;;;;;;;3.00;3.00;;;;;;;;4985535;28;9300;-83
2022/02/22 12:57:02;;;;;;;;;3.00;3.00;;;;;;;;5019992;28;9324;-80
2022/02/22 12:59:34;;;;;;;;;6.00;6.00;;;;;;;;5003998;28;9836;-82
2022/02/22 13:02:05;;;;;;;;;2.00;2.00;;;;;;;;5001702;28;10199;-79
2022/02/22 13:04:35;;;;;;;;;4.00;2.33;;;;;;;;5006252;28;10252;-79
2022/02/22 13:07:11;;;;;;;;;2.67;2.67;;;;;;;;5010166;28;9281;-81
2022/02/22 13:09:38;;;;;;;;;2.33;2.33;;;;;;;;5035934;28;9187;-80
2022/02/22 13:12:07;;;;;;;;;2.67;2.00;;;;;;;;5035261;28;9252;-82
2022/02/22 13:14:39;;;;;;;;;7.67;3.33;;;;;;;;5002305;28;9192;-81
2022/02/22 13:17:07;;;;;;;;;1.00;1.00;;;;;;;;5020270;28;9840;-81
2022/02/22 13:19:36;;;;;;;;;2.00;2.00;;;;;;;;5019371;28;9022;-81
2022/02/22 13:22:05;;;;;;;;;2.33;2.33;;;;;;;;5025852;28;9124;-82
2022/02/22 13:24:33;;;;;;;;;3.00;3.00;;;;;;;;5019314;28;8966;-81
2022/02/22 13:27:02;;;;;;;;;2.75;1.75;;;;;;;;5032358;28;8870;-81
2022/02/22 13:29:31;;;;;;;;;2.00;2.00;;;;;;;;5023522;28;8869;-81
2022/02/22 13:32:08;;;;;;;;;3.00;1.25;;;;;;;;5035737;28;8976;-81
2022/02/22 13:34:44;;;;;;;;;3.00;3.00;;;;;;;;5020194;28;8883;-81
2022/02/22 13:37:11;;;;;;;;;3.25;1.75;;;;;;;;5015881;28;8886;-80
2022/02/22 13:39:39;;;;;;;;;1.00;1.00;;;;;;;;5020335;28;8883;-80
2022/02/22 13:42:07;;;;;;;;;3.75;2.50;;;;;;;;5023299;28;9692;-79
2022/02/22 13:44:36;;;;;;;;;2.00;2.00;;;;;;;;5021890;28;8868;-80
2022/02/22 13:47:05;;;;;;;;;1.00;1.00;;;;;;;;4997494;28;8867;-80
2022/02/22 13:49:43;;;;;;;;;1.75;1.00;;;;;;;;5016489;28;9353;-82
2022/02/22 13:52:11;;;;;;;;;2.00;2.00;;;;;;;;5020912;28;8866;-81
2022/02/22 13:54:38;;;;;;;;;2.00;2.00;;;;;;;;5025734;28;8987;-80
2022/02/22 13:57:10;;;;;;;;;2.00;2.00;;;;;;;;5022203;28;8958;-80
2022/02/22 13:59:40;;;;;;;;;2.00;2.00;;;;;;;;5015282;28;8862;-81
2022/02/22 14:02:11;;;;;;;;;2.00;2.00;;;;;;;;5016303;28;8831;-81
2022/02/22 14:04:39;;;;;;;;;7.00;3.00;;;;;;;;5017542;28;8863;-81
2022/02/22 14:07:07;;;;;;;;;3.00;1.00;;;;;;;;5024209;28;8982;-81
2022/02/22 14:09:36;;;;;;;;;3.00;2.00;;;;;;;;5015263;28;9566;-81
2022/02/22 14:12:05;;;;;;;;;2.00;2.00;;;;;;;;4995261;28;8890;-80
2022/02/22 14:14:32;;;;;;;;;1.75;1.00;;;;;;;;5031254;28;8886;-81
2022/02/22 14:17:00;;;;;;;;;5.33;4.00;;;;;;;;5023382;28;8963;-81
2022/02/22 14:19:29;;;;;;;;;2.50;2.50;;;;;;;;5035322;28;8926;-81
2022/02/22 14:21:56;;;;;;;;;1.67;1.67;;;;;;;;5018817;28;8864;-80
2022/02/22 14:24:24;;;;;;;;;4.00;2.00;;;;;;;;5020878;28;8963;-80
2022/02/22 14:26:52;;;;;;;;;3.00;3.00;;;;;;;;5024413;28;8965;-80
2022/02/22 14:29:20;;;;;;;;;4.00;2.67;;;;;;;;5020178;28;8981;-80
2022/02/22 14:31:47;;;;;;;;;6.00;3.00;;;;;;;;5021509;28;9022;-80
2022/02/22 14:34:14;;;;;;;;;3.00;2.00;;;;;;;;5020076;28;9055;-79
2022/02/22 14:36:43;;;;;;;;;4.00;2.00;;;;;;;;5037169;28;8891;-80
2022/02/22 14:39:12;;;;;;;;;3.67;2.33;;;;;;;;5019382;28;8946;-79
2022/02/22 14:41:40;;;;;;;;;5.75;3.00;;;;;;;;5024524;28;8982;-81
2022/02/22 14:44:09;;;;;;;;;3.00;1.25;;;;;;;;5013246;28;9409;-80
2022/02/22 14:46:38;;;;;;;;;2.50;2.00;;;;;;;;5012080;28;8884;-80
2022/02/22 14:49:06;;;;;;;;;2.00;2.00;;;;;;;;5029053;28;8889;-80
2022/02/22 14:51:34;;;;;;;;;4.25;3.75;;;;;;;;5019576;28;8903;-76